createdAt,value
2023-02-01T00:02:17.194Z,99721.95
2023-02-01T00:04:45.177Z,99720.36
2023-02-01T00:07:14.467Z,99715.43
2023-02-01T00:09:42.925Z,99713.54
2023-02-01T00:12:12.878Z,99709.48
2023-02-01T00:14:40.938Z,99705.45
2023-02-01T00:17:09.023Z,99697.38
2023-02-01T00:19:37.037Z,99699.15
2023-02-01T00:22:05.478Z,99697.56
2023-02-01T00:24:34.190Z,99696.36
2023-02-01T00:27:02.160Z,99692.67
2023-02-01T00:29:30.629Z,99694.80
2023-02-01T00:31:58.987Z,99691.81
2023-02-01T00:34:28.169Z,99686.74
2023-02-01T00:36:56.049Z,99682.89
2023-02-01T00:39:24.141Z,99678.69
2023-02-01T00:41:52.175Z,99673.95
2023-02-01T00:44:20.084Z,99675.05
2023-02-01T00:46:48.056Z,99674.71
2023-02-01T00:49:15.907Z,99667.70
2023-02-01T00:51:44.086Z,99671.06
2023-02-01T00:54:12.122Z,99670.91
2023-02-01T00:56:40.251Z,99664.59
2023-02-01T00:59:11.715Z,99664.23
2023-02-01T01:01:39.633Z,99666.89
2023-02-01T01:04:07.959Z,99667.77
2023-02-01T01:06:36.583Z,99666.89
2023-02-01T01:09:06.442Z,99669.55
2023-02-01T01:11:36.837Z,99672.90
2023-02-01T01:14:06.897Z,99671.48
2023-02-01T01:16:35.027Z,99675.18
2023-02-01T01:19:03.397Z,99670.61
2023-02-01T01:21:31.790Z,99668.16
2023-02-01T01:24:00.009Z,99661.81
2023-02-01T01:26:29.004Z,99656.36
2023-02-01T01:28:57.725Z,99656.36
2023-02-01T01:31:26.436Z,99652.83
2023-02-01T01:33:56.262Z,99651.27
2023-02-01T01:36:24.945Z,99650.59
2023-02-01T01:38:53.535Z,99650.06
2023-02-01T01:41:26.655Z,99648.65
2023-02-01T01:43:57.449Z,99649.88
2023-02-01T01:46:44.941Z,99645.30
2023-02-01T01:49:21.669Z,99650.39
2023-02-01T01:54:06.160Z,99670.15
2023-02-01T01:56:34.463Z,99717.91
2023-02-01T01:59:02.923Z,99699.92
2023-02-01T02:01:30.925Z,99687.05
2023-02-01T02:03:59.249Z,99675.77
2023-02-01T02:06:30.361Z,99667.13
2023-02-01T02:08:58.557Z,99659.58
2023-02-01T02:11:26.459Z,99654.11
2023-02-01T02:13:55.171Z,99653.94
2023-02-01T02:16:47.274Z,99642.33
2023-02-01T02:19:27.543Z,99648.00
2023-02-01T02:22:15.886Z,99643.60
2023-02-01T02:25:13.378Z,99640.42
2023-02-01T02:27:47.577Z,99639.19
2023-02-01T02:30:39.912Z,79706.92
2023-02-01T02:33:42.203Z,-1.00
2023-02-01T02:36:26.156Z,-1.00
2023-02-01T02:39:03.738Z,-1.00
2023-02-01T02:41:59.985Z,-1.00
2023-02-01T02:44:50.443Z,-1.00
2023-02-01T02:47:24.943Z,-1.00
2023-02-01T02:50:30.628Z,-1.00
2023-02-01T02:53:30.644Z,-1.00
2023-02-01T02:56:17.639Z,-1.00
2023-02-01T02:59:04.595Z,-1.00
2023-02-01T03:01:51.333Z,-1.00
2023-02-01T03:04:21.166Z,-1.00
2023-02-01T03:06:51.369Z,-1.00
2023-02-01T03:09:25.606Z,-1.00
2023-02-01T03:12:14.506Z,-1.00
2023-02-01T03:14:42.532Z,-1.00
2023-02-01T03:17:16.000Z,-1.00
2023-02-01T03:19:49.533Z,-1.00
2023-02-01T03:22:24.874Z,-1.00
2023-02-01T03:24:59.282Z,-1.00
2023-02-01T03:27:37.091Z,-1.00
2023-02-01T03:30:27.010Z,-1.00
2023-02-01T03:33:01.196Z,-1.00
2023-02-01T03:35:42.972Z,-1.00
2023-02-01T03:38:39.767Z,-1.00
2023-02-01T03:41:13.684Z,-1.00
2023-02-01T03:44:05.592Z,-1.00
2023-02-01T03:46:42.060Z,-1.00
2023-02-01T03:49:11.627Z,-1.00
2023-02-01T03:51:39.933Z,-1.00
2023-02-01T03:54:11.901Z,-1.00
2023-02-01T03:56:40.749Z,-1.00
2023-02-01T03:59:09.317Z,-1.00
2023-02-01T04:01:42.313Z,-1.00
2023-02-01T04:04:10.604Z,-1.00
2023-02-01T04:08:15.083Z,99725.65
2023-02-01T04:10:45.834Z,99741.39
2023-02-01T04:13:14.968Z,99711.39
2023-02-01T04:15:44.141Z,99694.81
2023-02-01T04:18:12.070Z,99685.45
2023-02-01T04:20:40.289Z,99675.77
2023-02-01T04:23:08.246Z,99666.81
2023-02-01T04:25:36.456Z,99660.11
2023-02-01T04:28:06.241Z,99653.23
2023-02-01T04:30:34.983Z,99652.00
2023-02-01T04:33:06.305Z,99650.94
2023-02-01T04:35:35.076Z,99647.23
2023-02-01T04:38:04.330Z,99645.11
2023-02-01T04:40:34.501Z,99645.98
2023-02-01T04:43:02.501Z,99644.73
2023-02-01T04:45:30.824Z,99641.02
2023-02-01T04:47:59.532Z,99633.26
2023-02-01T04:50:27.526Z,99631.84
2023-02-01T04:52:55.572Z,99629.54
2023-02-01T04:55:24.453Z,99629.35
2023-02-01T04:57:52.566Z,99627.38
2023-02-01T05:00:21.263Z,99627.89
2023-02-01T05:02:49.381Z,99624.17
2023-02-01T05:05:17.607Z,99625.23
2023-02-01T05:07:47.017Z,99616.04
2023-02-01T05:10:15.416Z,99614.63
2023-02-01T05:13:04.056Z,99607.23
2023-02-01T05:15:32.531Z,99617.29
2023-02-01T05:18:00.668Z,99607.94
2023-02-01T05:20:28.958Z,99608.82
2023-02-01T05:22:57.046Z,99601.23
2023-02-01T05:25:24.924Z,99598.60
2023-02-01T05:27:54.232Z,99602.30
2023-02-01T05:30:22.800Z,99598.25
2023-02-01T05:32:54.120Z,99598.96
2023-02-01T05:35:22.055Z,99598.45
2023-02-01T05:37:51.969Z,99596.31
2023-02-01T05:40:20.532Z,99594.73
2023-02-01T05:42:48.666Z,99595.60
2023-02-01T05:45:16.817Z,99596.13
2023-02-01T05:47:44.769Z,99593.83
2023-02-01T05:50:12.743Z,99592.41
2023-02-01T05:52:41.138Z,99594.71
2023-02-01T05:55:09.459Z,99591.36
2023-02-01T05:57:37.507Z,99594.18
2023-02-01T06:00:06.091Z,99593.30
2023-02-01T06:02:41.752Z,99598.59
2023-02-01T06:05:10.232Z,99592.42
2023-02-01T06:07:38.474Z,99587.13
2023-02-01T06:10:07.622Z,99586.24
2023-02-01T06:12:35.501Z,99587.48
2023-02-01T06:15:04.190Z,59752.01
2023-02-01T06:17:34.391Z,-1.00
2023-02-01T06:20:02.240Z,-1.00
2023-02-01T06:22:30.527Z,-1.00
2023-02-01T06:25:00.092Z,-1.00
2023-02-01T06:27:28.091Z,-1.00
2023-02-01T06:29:56.282Z,-1.00
2023-02-01T06:32:25.644Z,-1.00
2023-02-01T06:34:53.583Z,-1.00
2023-02-01T06:37:21.557Z,-1.00
2023-02-01T06:39:50.126Z,-1.00
2023-02-01T06:42:17.980Z,-1.00
2023-02-01T06:44:47.014Z,-1.00
2023-02-01T06:47:15.000Z,-1.00
2023-02-01T06:49:43.067Z,-1.00
2023-02-01T06:52:14.521Z,-1.00
2023-02-01T06:54:42.693Z,-1.00
2023-02-01T06:57:10.536Z,-1.00
2023-02-01T06:59:38.463Z,-1.00
2023-02-01T07:02:06.609Z,-1.00
2023-02-01T07:04:34.694Z,-1.00
2023-02-01T07:07:02.670Z,-1.00
2023-02-01T07:09:31.766Z,-1.00
2023-02-01T07:11:59.920Z,-1.00
2023-02-01T07:14:28.003Z,-1.00
2023-02-01T07:16:56.106Z,-1.00
2023-02-01T07:19:24.054Z,-1.00
2023-02-01T07:21:51.945Z,-1.00
2023-02-01T07:24:20.423Z,-1.00
2023-02-01T07:26:49.123Z,-1.00
2023-02-01T07:29:21.824Z,-1.00
2023-02-01T07:31:49.857Z,-1.00
2023-02-01T07:34:18.365Z,-1.00
2023-02-01T07:36:46.541Z,-1.00
2023-02-01T07:39:14.480Z,-1.00
2023-02-01T07:41:42.491Z,-1.00
2023-02-01T07:44:13.803Z,-1.00
2023-02-01T07:46:41.733Z,-1.00
2023-02-01T07:49:10.013Z,-1.00
2023-02-01T07:51:38.018Z,-1.00
2023-02-01T07:54:06.066Z,-1.00
2023-02-01T07:56:34.990Z,-1.00
2023-02-01T07:59:03.131Z,-1.00
2023-02-01T08:01:32.197Z,-1.00
2023-02-01T08:04:03.894Z,-1.00
2023-02-01T08:06:33.387Z,-1.00
2023-02-01T08:09:01.663Z,-1.00
2023-02-01T08:11:29.950Z,-1.00
2023-02-01T08:13:59.413Z,-1.00
2023-02-01T08:16:27.559Z,-1.00
2023-02-01T08:18:55.860Z,-1.00
2023-02-01T08:21:29.501Z,-1.00
2023-02-01T08:23:57.768Z,-1.00
2023-02-01T08:26:26.879Z,-1.00
2023-02-01T08:29:00.622Z,-1.00
2023-02-01T08:31:29.842Z,-1.00
2023-02-01T08:33:59.555Z,-1.00
2023-02-01T08:36:28.704Z,-1.00
2023-02-01T08:38:56.780Z,-1.00
2023-02-01T08:41:27.016Z,-1.00
2023-02-01T08:43:55.380Z,-1.00
2023-02-01T08:46:24.272Z,-1.00
2023-02-01T08:48:52.701Z,-1.00
2023-02-01T08:51:22.040Z,-1.00
2023-02-01T08:53:50.567Z,-1.00
2023-02-01T08:56:19.074Z,-1.00
2023-02-01T08:58:47.024Z,-1.00
2023-02-01T09:01:16.367Z,-1.00
2023-02-01T09:03:44.365Z,-1.00
2023-02-01T09:06:13.526Z,-1.00
2023-02-01T09:08:47.188Z,-1.00
2023-02-01T09:11:17.052Z,-1.00
2023-02-01T09:13:45.936Z,-1.00
2023-02-01T09:16:13.951Z,-1.00
2023-02-01T09:18:55.336Z,-1.00
2023-02-01T09:21:30.610Z,-1.00
2023-02-01T09:23:58.679Z,-1.00
2023-02-01T09:26:32.096Z,-1.00
2023-02-01T09:29:01.669Z,-1.00
2023-02-01T09:31:31.050Z,-1.00
2023-02-01T09:33:59.297Z,-1.00
2023-02-01T09:36:29.369Z,-1.00
2023-02-01T09:38:58.658Z,-1.00
2023-02-01T09:42:00.766Z,-1.00
2023-02-01T09:45:06.221Z,-1.00
2023-02-01T09:47:35.872Z,-1.00
2023-02-01T09:53:25.445Z,99699.33
2023-02-01T09:55:56.988Z,99714.55
2023-02-01T09:58:42.791Z,99674.63
2023-02-01T10:01:20.536Z,99656.66
2023-02-01T10:03:48.432Z,99631.59
2023-02-01T10:06:41.629Z,99608.98
2023-02-01T10:09:13.181Z,99613.11
2023-02-01T10:11:56.953Z,99592.11
2023-02-01T10:14:38.715Z,99587.41
2023-02-01T10:17:31.367Z,99583.06
2023-02-01T10:20:10.997Z,99576.59
2023-02-01T10:25:44.136Z,99554.80
2023-02-01T10:28:16.648Z,99544.05
2023-02-01T10:30:46.439Z,99530.13
2023-02-01T10:33:14.279Z,99519.17
2023-02-01T10:35:42.909Z,99514.41
2023-02-01T10:38:21.957Z,99507.00
2023-02-01T10:40:50.447Z,99510.37
2023-02-01T10:43:21.942Z,99502.60
2023-02-01T10:45:50.041Z,99495.94
2023-02-01T10:48:17.949Z,99491.38
2023-02-01T10:50:53.133Z,99487.50
2023-02-01T10:53:25.067Z,99485.39
2023-02-01T10:55:54.271Z,99479.75
2023-02-01T10:58:30.310Z,99474.85
2023-02-01T11:00:59.518Z,99472.03
2023-02-01T11:03:41.812Z,99464.80
2023-02-01T11:06:15.111Z,99470.46
2023-02-01T11:08:47.297Z,99460.38
2023-02-01T11:11:15.255Z,99453.67
2023-02-01T11:13:43.334Z,99443.60
2023-02-01T11:16:15.647Z,99440.43
2023-02-01T11:18:43.674Z,99440.50
2023-02-01T11:21:11.937Z,99430.46
2023-02-01T11:23:44.430Z,99426.06
2023-02-01T11:26:34.699Z,99425.71
2023-02-01T11:29:07.022Z,99428.02
2023-02-01T11:31:37.567Z,99422.16
2023-02-01T11:34:12.815Z,99416.45
2023-02-01T11:36:40.890Z,99419.90
2023-02-01T11:39:25.799Z,99410.30
2023-02-01T11:42:14.960Z,99415.34
2023-02-01T11:44:47.144Z,99421.75
2023-02-01T11:47:32.700Z,99409.77
2023-02-01T11:50:03.835Z,99411.23
2023-02-01T11:52:50.868Z,99398.02
2023-02-01T11:55:47.318Z,99401.08
2023-02-01T11:58:27.622Z,99409.53
2023-02-01T12:01:14.005Z,99400.25
2023-02-01T12:03:47.957Z,99402.66
2023-02-01T12:06:51.180Z,99397.29
2023-02-01T12:09:26.230Z,99405.92
2023-02-01T12:12:25.791Z,99395.48
2023-02-01T12:15:27.530Z,99401.64
2023-02-01T12:18:14.126Z,99401.81
2023-02-01T12:21:03.952Z,99397.06
2023-02-01T12:23:57.893Z,99389.67
2023-02-01T12:26:40.986Z,99391.16
2023-02-01T12:29:46.264Z,99383.13
2023-02-01T12:32:23.398Z,99386.05
2023-02-01T12:35:22.839Z,99374.96
2023-02-01T12:37:57.131Z,99381.73
2023-02-01T12:40:43.478Z,99369.59
2023-02-01T12:43:22.927Z,99374.02
2023-02-01T12:46:04.969Z,99368.89
2023-02-01T12:48:38.587Z,99368.54
2023-02-01T12:51:17.911Z,99361.45
2023-02-01T12:54:03.539Z,99359.69
2023-02-01T12:56:44.738Z,99364.30
2023-02-01T12:59:25.927Z,99359.56
2023-02-01T13:01:59.913Z,99361.36
2023-02-01T13:04:34.935Z,99360.48
2023-02-01T13:07:05.869Z,99357.87
2023-02-01T13:09:44.600Z,99356.31
2023-02-01T13:12:22.039Z,99360.38
2023-02-01T13:14:57.850Z,99357.39
2023-02-01T13:17:32.191Z,99357.38
2023-02-01T13:20:22.953Z,99351.17
2023-02-01T13:23:01.747Z,99362.62
2023-02-01T13:25:41.215Z,99358.73
2023-02-01T13:28:21.118Z,99359.05
2023-02-01T13:30:52.926Z,99354.97
2023-02-01T13:33:56.023Z,99350.53
2023-02-01T13:36:29.101Z,99363.96
2023-02-01T13:39:15.755Z,99354.23
2023-02-01T13:42:01.005Z,99359.91
2023-02-01T13:44:44.908Z,99364.33
2023-02-01T13:47:34.011Z,99364.01
2023-02-01T13:50:25.919Z,99366.35
2023-02-01T13:52:59.459Z,99367.23
2023-02-01T13:55:31.724Z,99362.60
2023-02-01T13:58:02.628Z,99356.55
2023-02-01T14:00:37.878Z,99351.23
2023-02-01T14:03:05.776Z,99354.61
2023-02-01T14:05:35.543Z,99348.77
2023-02-01T14:08:06.520Z,99353.40
2023-02-01T14:10:53.788Z,99354.88
2023-02-01T14:13:29.091Z,99366.21
2023-02-01T14:16:03.366Z,99365.32
2023-02-01T14:18:34.739Z,99364.07
2023-02-01T14:21:24.970Z,99363.15
2023-02-01T14:23:58.681Z,99377.60
2023-02-01T14:26:29.497Z,99374.95
2023-02-01T14:29:03.115Z,99369.83
2023-02-01T14:31:31.243Z,99376.54
2023-02-01T14:34:00.379Z,99374.06
2023-02-01T14:36:28.750Z,99375.45
2023-02-01T14:38:56.576Z,99379.33
2023-02-01T14:41:34.831Z,99376.65
2023-02-01T14:44:03.074Z,99381.06
2023-02-01T14:47:05.669Z,99376.62
2023-02-01T14:49:34.343Z,99395.52
2023-02-01T14:52:03.664Z,99384.88
2023-02-01T14:54:31.717Z,99389.65
2023-02-01T14:56:59.694Z,99388.42
2023-02-01T14:59:27.628Z,99390.17
2023-02-01T15:01:57.452Z,99388.73
2023-02-01T15:04:26.798Z,99393.67
2023-02-01T15:06:57.620Z,99395.45
2023-02-01T15:09:26.810Z,99404.48
2023-02-01T15:12:06.008Z,99408.21
2023-02-01T15:14:43.553Z,99415.98
2023-02-01T15:17:26.555Z,99416.30
2023-02-01T15:19:55.824Z,99423.55
2023-02-01T15:22:23.706Z,99419.13
2023-02-01T15:24:55.753Z,99419.30
2023-02-01T15:27:23.894Z,99420.22
2023-02-01T15:29:51.968Z,99418.47
2023-02-01T15:32:34.861Z,99418.13
2023-02-01T15:35:03.148Z,99428.79
2023-02-01T15:37:34.102Z,99424.75
2023-02-01T15:40:11.632Z,99423.35
2023-02-01T15:42:49.244Z,99425.85
2023-02-01T15:45:21.464Z,99427.98
2023-02-01T15:47:50.456Z,99426.04
2023-02-01T15:50:23.303Z,99432.92
2023-02-01T15:52:53.214Z,99433.79
2023-02-01T15:55:22.316Z,99435.17
2023-02-01T15:57:50.739Z,99443.59
2023-02-01T16:00:31.145Z,99440.02
2023-02-01T16:03:03.930Z,99445.50
2023-02-01T16:05:38.190Z,99441.81
2023-02-01T16:08:25.206Z,99442.70
2023-02-01T16:10:56.048Z,99449.23
2023-02-01T16:13:23.953Z,99439.13
2023-02-01T16:15:52.883Z,99436.31
2023-02-01T16:18:21.337Z,99436.66
2023-02-01T16:20:49.368Z,99441.08
2023-02-01T16:23:17.434Z,99442.84
2023-02-01T16:25:45.428Z,99446.36
2023-02-01T16:28:13.358Z,99446.36
2023-02-01T16:30:41.579Z,99448.11
2023-02-01T16:33:13.260Z,99447.36
2023-02-01T16:35:41.094Z,99450.17
2023-02-01T16:38:14.083Z,99451.94
2023-02-01T16:40:44.125Z,99456.70
2023-02-01T16:43:20.196Z,99458.27
2023-02-01T16:45:49.462Z,99457.56
2023-02-01T16:48:19.051Z,99458.28
2023-02-01T16:50:48.764Z,99457.77
2023-02-01T16:53:17.566Z,99458.13
2023-02-01T16:55:47.692Z,99460.58
2023-02-01T16:58:16.274Z,99463.20
2023-02-01T17:00:44.943Z,99464.44
2023-02-01T17:03:17.490Z,99461.25
2023-02-01T17:05:50.606Z,99461.60
2023-02-01T17:08:35.147Z,99461.23
2023-02-01T17:11:04.467Z,99462.30
2023-02-01T17:13:33.085Z,99455.95
2023-02-01T17:16:03.454Z,99457.54
2023-02-01T17:18:34.059Z,99457.73
2023-02-01T17:21:03.050Z,99462.33
2023-02-01T17:23:31.235Z,99461.98
2023-02-01T17:25:59.405Z,99457.22
2023-02-01T17:28:27.484Z,99461.27
2023-02-01T17:30:56.829Z,99461.62
2023-02-01T17:33:36.250Z,99462.70
2023-02-01T17:36:05.981Z,99468.73
2023-02-01T17:38:36.855Z,99459.71
2023-02-01T17:41:05.186Z,99460.95
2023-02-01T17:43:34.730Z,99458.47
2023-02-01T17:46:06.322Z,99461.10
2023-02-01T17:49:45.803Z,99491.89
2023-02-01T17:52:20.779Z,99550.86
2023-02-01T17:54:50.679Z,99533.05
2023-02-01T17:57:18.624Z,99518.10
2023-02-01T17:59:49.519Z,99511.23
2023-02-01T18:02:19.603Z,99501.18
2023-02-01T18:04:47.981Z,99493.59
2023-02-01T18:07:16.638Z,99487.41
2023-02-01T18:09:44.621Z,99484.23
2023-02-01T18:12:19.369Z,99483.88
2023-02-01T18:14:48.857Z,99482.11
2023-02-01T18:17:16.814Z,99480.20
2023-02-01T18:19:45.426Z,99480.60
2023-02-01T18:22:18.061Z,99475.67
2023-02-01T18:24:45.941Z,99474.45
2023-02-01T18:27:14.005Z,99471.16
2023-02-01T18:29:44.383Z,99467.13
2023-02-01T18:32:12.381Z,99466.77
2023-02-01T18:34:41.117Z,99467.67
2023-02-01T18:37:09.205Z,99462.21
2023-02-01T18:39:38.561Z,99462.56
2023-02-01T18:42:06.522Z,99460.06
2023-02-01T18:44:35.329Z,99454.55
2023-02-01T18:47:03.303Z,99452.77
2023-02-01T18:49:32.359Z,99448.98
2023-02-01T18:52:04.353Z,99445.77
2023-02-01T18:54:32.497Z,99448.40
2023-02-01T18:57:02.010Z,99444.83
2023-02-01T18:59:30.652Z,99442.50
2023-02-01T19:01:58.621Z,99444.25
2023-02-01T19:04:27.748Z,99438.42
2023-02-01T19:07:00.470Z,99437.52
2023-02-01T19:09:32.012Z,99438.58
2023-02-01T19:12:07.909Z,99439.64
2023-02-01T19:14:37.121Z,99434.14
2023-02-01T19:17:05.643Z,99435.54
2023-02-01T19:19:33.680Z,99433.02
2023-02-01T19:22:01.924Z,99426.09
2023-02-01T19:24:31.417Z,99428.58
2023-02-01T19:26:59.346Z,99428.21
2023-02-01T19:29:27.443Z,99428.91
2023-02-01T19:31:55.729Z,99426.94
2023-02-01T19:34:23.873Z,99431.34
2023-02-01T19:36:52.656Z,99428.98
2023-02-01T19:39:22.375Z,99429.83
2023-02-01T19:41:50.922Z,99427.36
2023-02-01T19:44:22.114Z,99424.17
2023-02-01T19:46:52.065Z,99424.34
2023-02-01T19:49:20.318Z,99418.31
2023-02-01T19:51:48.828Z,99417.42
2023-02-01T19:54:16.809Z,99416.91
2023-02-01T19:58:55.436Z,99446.45
2023-02-01T20:01:22.452Z,99510.50
2023-02-01T20:03:50.506Z,99495.67
2023-02-01T20:06:18.988Z,99488.11
2023-02-01T20:08:48.014Z,99479.46
2023-02-01T20:11:16.275Z,99473.14
2023-02-01T20:13:44.663Z,99467.89
2023-02-01T20:16:12.675Z,99464.02
2023-02-01T20:18:40.884Z,99461.01
2023-02-01T20:21:11.852Z,99453.73
2023-02-01T20:23:39.868Z,99458.80
2023-02-01T20:26:12.278Z,99453.82
2023-02-01T20:28:40.224Z,99453.81
2023-02-01T20:31:10.768Z,99446.56
2023-02-01T20:33:38.679Z,99445.13
2023-02-01T20:36:07.189Z,99446.67
2023-02-01T20:38:35.227Z,99446.82
2023-02-01T20:41:04.723Z,99446.64
2023-02-01T20:43:33.222Z,99446.44
2023-02-01T20:46:01.788Z,99447.48
2023-02-01T20:48:30.682Z,99439.52
2023-02-01T20:50:58.918Z,99440.20
2023-02-01T20:53:27.306Z,99440.02
2023-02-01T20:55:56.474Z,99437.17
2023-02-01T20:58:24.468Z,99439.42
2023-02-01T21:00:56.301Z,99441.68
2023-02-01T21:03:24.423Z,99447.33
2023-02-01T21:05:54.788Z,99444.48
2023-02-01T21:08:23.088Z,99452.58
2023-02-01T21:11:01.465Z,99451.29
2023-02-01T21:13:32.355Z,99455.87
2023-02-01T21:16:00.395Z,99455.51
2023-02-01T21:18:29.409Z,99455.14
2023-02-01T21:20:58.226Z,99455.48
2023-02-01T21:23:26.138Z,99453.70
2023-02-01T21:25:54.145Z,99453.35
2023-02-01T21:28:22.336Z,99454.05
2023-02-01T21:30:51.158Z,99451.93
2023-02-01T21:33:19.208Z,99453.34
2023-02-01T21:35:50.403Z,99455.63
2023-02-01T21:38:18.416Z,99457.58
2023-02-01T21:41:09.494Z,99456.15
2023-02-01T21:43:37.902Z,99469.92
2023-02-01T21:46:06.204Z,99463.05
2023-02-01T21:49:04.168Z,99463.41
2023-02-01T21:51:23.350Z,99473.15
2023-02-01T21:53:51.458Z,99467.13
2023-02-01T21:56:19.283Z,99465.54
2023-02-01T21:58:47.323Z,99465.89
2023-02-01T22:01:15.356Z,99462.00
2023-02-01T22:03:43.237Z,99462.52
2023-02-01T22:06:11.258Z,99463.91
2023-02-01T22:08:40.151Z,99460.68
2023-02-01T22:11:08.293Z,99458.20
2023-02-01T22:13:36.150Z,99458.88
2023-02-01T22:16:04.251Z,99456.58
2023-02-01T22:18:34.016Z,99456.05
2023-02-01T22:21:05.556Z,99459.27
2023-02-01T22:23:34.235Z,99458.60
2023-02-01T22:26:03.595Z,99457.92
2023-02-01T22:28:33.798Z,99462.73
2023-02-01T22:31:02.749Z,99460.24
2023-02-01T22:33:31.144Z,99459.88
2023-02-01T22:35:59.613Z,99462.70
2023-02-01T22:38:32.003Z,99463.92
2023-02-01T22:41:02.020Z,99461.04
2023-02-01T22:43:30.401Z,99466.67
2023-02-01T22:46:06.366Z,99462.58
2023-02-01T22:48:35.973Z,99462.91
2023-02-01T22:51:04.330Z,99465.38
2023-02-01T22:53:32.505Z,99464.98
2023-02-01T22:56:06.028Z,99466.70
2023-02-01T22:58:37.021Z,99468.26
2023-02-01T23:01:08.301Z,99467.53
2023-02-01T23:03:39.056Z,99470.20
2023-02-01T23:06:07.705Z,99463.52
2023-02-01T23:08:35.837Z,99471.38
2023-02-01T23:11:07.246Z,99465.42
2023-02-01T23:13:35.809Z,99468.11
2023-02-01T23:16:12.844Z,99466.71
2023-02-01T23:18:41.354Z,99469.02
2023-02-01T23:21:12.046Z,99462.33
2023-02-01T23:23:39.989Z,99461.92
2023-02-01T23:26:09.513Z,99457.69
2023-02-01T23:28:37.847Z,99457.70
2023-02-01T23:31:08.464Z,99453.45
2023-02-01T23:33:37.179Z,99456.23
2023-02-01T23:36:12.130Z,99454.27
2023-02-01T23:38:40.306Z,99454.61
2023-02-01T23:41:09.644Z,99452.30
2023-02-01T23:43:56.683Z,99459.02
2023-02-01T23:46:32.386Z,99467.35
2023-02-01T23:49:01.220Z,99466.10
2023-02-01T23:51:29.786Z,99460.79
2023-02-01T23:56:53.590Z,99494.45
2023-02-01T23:59:22.287Z,99559.77
